ADDS METAR Data INFO
IDs: Format: Raw Decoded Include TAF

Data at: 0347 UTC 18 Oct 2017

KCNM 180253Z AUTO 18006KT 10SM CLR 17/11 A3012 RMK AO2 SLP167 T01720106 52011
KCNM 180153Z AUTO 19007KT 10SM CLR 18/09 A3011 RMK AO2 SLP167 T01830094
KCNM 180053Z AUTO 17007KT 10SM CLR 20/09 A3010 RMK AO2 SLP165 T02000094
KCNM 172353Z AUTO 15009KT 10SM CLR 25/08 A3009 RMK AO2 SLP155 T02500083 10278 20217 56010
KCNM 172253Z AUTO 16011KT 10SM CLR 27/08 A3009 RMK AO2 SLP153 T02720083
KCNM 172153Z AUTO 14009KT 10SM CLR 27/08 A3010 RMK AO2 SLP158 T02720078
KCNM 172053Z AUTO 16008KT 10SM CLR 27/06 A3012 RMK AO2 SLP161 T02720061 56035
KCNM 171953Z AUTO 14007KT 10SM CLR 26/06 A3015 RMK AO2 SLP171 T02610061
KCNM 171853Z AUTO 13007KT 10SM CLR 24/07 A3020 RMK AO2 SLP189 T02390072
KCNM 171753Z AUTO 13004KT 10SM CLR 21/07 A3023 RMK AO2 SLP205 T02110067 10211 20039 58013
KCNM 171653Z AUTO VRB05KT 10SM CLR 18/06 A3026 RMK AO2 SLP216 T01830061
KCNM 171553Z AUTO 13005KT 10SM CLR 14/05 A3027 RMK AO2 SLP225 T01440050
KCNM 171453Z AUTO 09003KT 10SM CLR 12/05 A3027 RMK AO2 SLP227 T01220050 53008
KCNM 171353Z AUTO 28003KT 10SM CLR 08/05 A3026 RMK AO2 SLP228 T00780050
KCNM 171253Z AUTO 30003KT 10SM CLR 04/03 A3025 RMK AO2 SLP225 T00440033
KCNM 171153Z AUTO 32003KT 10SM CLR 05/03 A3025 RMK AO2 SLP217 T00500033 10106 20050 55005
KCNM 171053Z AUTO 00000KT 10SM CLR 06/03 A3024 RMK AO2 SLP214 T00560033
KCNM 170953Z AUTO 09003KT 10SM CLR 06/03 A3025 RMK AO2 SLP216 T00560033
KCNM 170853Z AUTO 13003KT 10SM CLR 08/04 A3026 RMK AO2 SLP217 T00780039 56008
KCNM 170753Z AUTO 14005KT 10SM CLR 09/04 A3027 RMK AO2 SLP219 T00890039
KCNM 170653Z AUTO 17006KT 10SM CLR 10/03 A3027 RMK AO2 SLP221 T01000033 402220028
KCNM 170553Z AUTO 17008KT 10SM CLR 10/03 A3029 RMK AO2 SLP228 T01000033 10194 20100 58005
KCNM 170453Z AUTO 17009KT 10SM CLR 11/03 A3030 RMK AO2 SLP234 T01060033
KCNM 170353Z AUTO 18009KT 10SM CLR 11/03 A3030 RMK AO2 SLP236 T01110033
KCNM 170253Z AUTO 18008KT 10SM CLR 11/03 A3031 RMK AO2 SLP242 T01060033 51007
KCNM 170153Z AUTO 18004KT 10SM CLR 12/03 A3030 RMK AO2 SLP243 T01220033
KCNM 170053Z AUTO 14007KT 10SM CLR 16/03 A3029 RMK AO2 SLP238 T01560028
KCNM 162353Z AUTO 14009KT 10SM CLR 19/02 A3028 RMK AO2 SLP231 T01940022 10222 20189 56009
KCNM 162253Z AUTO 14013KT 10SM CLR 21/01 A3029 RMK AO2 SLP231 T02110011
KCNM 162153Z AUTO 18011KT 10SM CLR 22/01 A3030 RMK AO2 SLP233 T02170011
KCNM 162053Z AUTO 15010G18KT 10SM CLR 22/01 A3031 RMK AO2 SLP236 T02170006 57037
KCNM 161953Z AUTO 17010KT 10SM CLR 21/01 A3035 RMK AO2 SLP249 T02110006
KCNM 161853Z AUTO 15008G17KT 10SM CLR 20/01 A3040 RMK AO2 SLP265 T02000006
KCNM 161753Z AUTO 15010KT 10SM CLR 19/02 A3043 RMK AO2 SLP279 T01890017 10189 20028 58017
KCNM 161653Z AUTO 16006KT 10SM CLR 17/04 A3046 RMK AO2 SLP289 T01720044
KCNM 161553Z AUTO 12004KT 10SM CLR 14/04 A3048 RMK AO2 SLP298 T01390044